sensor_id;sensor_type;location;lat;lon;timestamp;temperature;humidity
1534;DHT22;760;48.822;9.304;2022-12-18T05:04:53;-8.20;99.90
1534;DHT22;760;48.822;9.304;2022-12-18T05:07:19;-8.30;99.90
1534;DHT22;760;48.822;9.304;2022-12-18T05:09:44;-8.50;99.90
1534;DHT22;760;48.822;9.304;2022-12-18T05:12:10;-8.50;99.90
1534;DHT22;760;48.822;9.304;2022-12-18T05:14:35;-8.50;99.90
1534;DHT22;760;48.822;9.304;2022-12-18T05:17:01;-8.50;99.90
1534;DHT22;760;48.822;9.304;2022-12-18T05:19:27;-8.50;99.90
1534;DHT22;760;48.822;9.304;2022-12-18T05:21:52;-8.50;99.90
1534;DHT22;760;48.822;9.304;2022-12-18T05:24:18;-8.50;99.90
1534;DHT22;760;48.822;9.304;2022-12-18T05:26:43;-8.40;99.90
1534;DHT22;760;48.822;9.304;2022-12-18T05:29:09;-8.40;99.90
1534;DHT22;760;48.822;9.304;2022-12-18T05:31:37;-8.20;99.90
1534;DHT22;760;48.822;9.304;2022-12-18T05:34:03;-8.40;99.90
1534;DHT22;760;48.822;9.304;2022-12-18T05:36:29;-8.30;99.90
1534;DHT22;760;48.822;9.304;2022-12-18T05:38:54;-8.10;99.90
1534;DHT22;760;48.822;9.304;2022-12-18T05:41:20;-8.20;99.90
1534;DHT22;760;48.822;9.304;2022-12-18T05:43:46;-8.10;99.90
1534;DHT22;760;48.822;9.304;2022-12-18T05:46:14;-7.90;99.90
1534;DHT22;760;48.822;9.304;2022-12-18T05:48:40;-8.10;99.90
1534;DHT22;760;48.822;9.304;2022-12-18T05:51:11;-8.10;99.90
1534;DHT22;760;48.822;9.304;2022-12-18T05:53:37;-8.00;99.90
1534;DHT22;760;48.822;9.304;2022-12-18T05:56:04;-8.00;99.90
1534;DHT22;760;48.822;9.304;2022-12-18T05:58:31;-7.90;99.90
1534;DHT22;760;48.822;9.304;2022-12-18T06:00:57;-7.80;99.90
1534;DHT22;760;48.822;9.304;2022-12-18T06:03:23;-7.70;99.90
1534;DHT22;760;48.822;9.304;2022-12-18T06:05:49;-7.60;99.90
1534;DHT22;760;48.822;9.304;2022-12-18T06:08:15;-7.50;99.90
1534;DHT22;760;48.822;9.304;2022-12-18T06:10:41;-7.50;99.90
1534;DHT22;760;48.822;9.304;2022-12-18T06:13:07;-7.50;99.90
1534;DHT22;760;48.822;9.304;2022-12-18T06:15:35;-7.50;99.90
1534;DHT22;760;48.822;9.304;2022-12-18T06:18:01;-7.60;99.90
1534;DHT22;760;48.822;9.304;2022-12-18T06:20:26;-7.70;99.90
1534;DHT22;760;48.822;9.304;2022-12-18T06:22:52;-7.90;99.90
1534;DHT22;760;48.822;9.304;2022-12-18T06:25:17;-8.00;99.90
1534;DHT22;760;48.822;9.304;2022-12-18T06:27:43;-8.00;99.90
1534;DHT22;760;48.822;9.304;2022-12-18T06:30:09;-8.00;99.90
1534;DHT22;760;48.822;9.304;2022-12-18T06:32:35;-8.10;99.90
1534;DHT22;760;48.822;9.304;2022-12-18T06:35:01;-8.10;99.90
1534;DHT22;760;48.822;9.304;2022-12-18T06:37:26;-7.90;99.90
1534;DHT22;760;48.822;9.304;2022-12-18T06:39:53;-8.20;99.90
1534;DHT22;760;48.822;9.304;2022-12-18T06:42:22;-8.20;99.90
1534;DHT22;760;48.822;9.304;2022-12-18T06:44:47;-8.30;99.90
1534;DHT22;760;48.822;9.304;2022-12-18T06:47:13;-8.30;99.90
1534;DHT22;760;48.822;9.304;2022-12-18T06:49:39;-8.30;99.90
1534;DHT22;760;48.822;9.304;2022-12-18T06:52:04;-8.40;99.90
1534;DHT22;760;48.822;9.304;2022-12-18T06:54:30;-8.30;99.90
1534;DHT22;760;48.822;9.304;2022-12-18T06:56:55;-8.30;99.90
1534;DHT22;760;48.822;9.304;2022-12-18T06:59:21;-8.40;99.90
1534;DHT22;760;48.822;9.304;2022-12-18T07:01:47;-8.40;99.90
1534;DHT22;760;48.822;9.304;2022-12-18T07:04:12;-8.40;99.90
1534;DHT22;760;48.822;9.304;2022-12-18T07:06:38;-8.40;99.90
1534;DHT22;760;48.822;9.304;2022-12-18T07:09:04;-8.40;99.90
1534;DHT22;760;48.822;9.304;2022-12-18T07:11:31;-8.40;99.90
1534;DHT22;760;48.822;9.304;2022-12-18T07:14:00;-8.50;99.90
1534;DHT22;760;48.822;9.304;2022-12-18T07:16:25;-8.50;99.90
1534;DHT22;760;48.822;9.304;2022-12-18T07:18:54;-8.50;99.90
1534;DHT22;760;48.822;9.304;2022-12-18T07:21:20;-8.40;99.90
1534;DHT22;760;48.822;9.304;2022-12-18T07:23:46;-8.20;99.90
1534;DHT22;760;48.822;9.304;2022-12-18T07:26:14;-8.30;99.90
1534;DHT22;760;48.822;9.304;2022-12-18T07:28:41;-8.30;99.90
1534;DHT22;760;48.822;9.304;2022-12-18T07:31:10;-8.30;99.90
1534;DHT22;760;48.822;9.304;2022-12-18T07:33:35;-8.20;99.90
1534;DHT22;760;48.822;9.304;2022-12-18T07:36:02;-8.20;99.90
1534;DHT22;760;48.822;9.304;2022-12-18T07:38:29;-8.10;99.90
1534;DHT22;760;48.822;9.304;2022-12-18T07:41:07;-8.00;99.90
1534;DHT22;760;48.822;9.304;2022-12-18T07:43:34;-7.90;99.90
1534;DHT22;760;48.822;9.304;2022-12-18T07:46:00;-7.80;99.90
1534;DHT22;760;48.822;9.304;2022-12-18T07:48:25;-7.70;99.90
1534;DHT22;760;48.822;9.304;2022-12-18T07:50:51;-7.60;99.90
1534;DHT22;760;48.822;9.304;2022-12-18T07:53:17;-7.50;99.90
1534;DHT22;760;48.822;9.304;2022-12-18T07:55:43;-7.50;99.90
1534;DHT22;760;48.822;9.304;2022-12-18T07:58:08;-7.50;99.90
1534;DHT22;760;48.822;9.304;2022-12-18T08:00:34;-7.50;99.90
1534;DHT22;760;48.822;9.304;2022-12-18T08:03:00;-7.30;99.90
1534;DHT22;760;48.822;9.304;2022-12-18T08:05:26;-7.30;99.90
1534;DHT22;760;48.822;9.304;2022-12-18T08:07:53;-7.20;99.90
1534;DHT22;760;48.822;9.304;2022-12-18T08:10:19;-7.10;99.90
1534;DHT22;760;48.822;9.304;2022-12-18T08:12:48;-7.00;99.90
1534;DHT22;760;48.822;9.304;2022-12-18T08:15:14;-6.90;99.90
1534;DHT22;760;48.822;9.304;2022-12-18T08:17:39;-6.70;99.90
1534;DHT22;760;48.822;9.304;2022-12-18T08:20:05;-6.50;99.90
1534;DHT22;760;48.822;9.304;2022-12-18T08:22:33;-6.30;99.90
1534;DHT22;760;48.822;9.304;2022-12-18T08:24:58;-6.10;99.90
1534;DHT22;760;48.822;9.304;2022-12-18T08:27:24;-5.90;99.90
1534;DHT22;760;48.822;9.304;2022-12-18T08:29:49;-5.50;99.90
1534;DHT22;760;48.822;9.304;2022-12-18T08:32:15;-5.00;99.90
1534;DHT22;760;48.822;9.304;2022-12-18T08:34:40;-4.40;99.90
1534;DHT22;760;48.822;9.304;2022-12-18T08:37:06;-3.70;99.90
1534;DHT22;760;48.822;9.304;2022-12-18T08:39:31;-3.00;99.90
1534;DHT22;760;48.822;9.304;2022-12-18T08:41:57;-2.40;99.90
1534;DHT22;760;48.822;9.304;2022-12-18T08:44:41;-1.70;99.90
1534;DHT22;760;48.822;9.304;2022-12-18T08:47:07;-1.10;99.90
1534;DHT22;760;48.822;9.304;2022-12-18T08:49:34;-0.60;99.90
1534;DHT22;760;48.822;9.304;2022-12-18T08:52:00;-0.20;99.90
1534;DHT22;760;48.822;9.304;2022-12-18T08:54:26;0.10;99.90
1534;DHT22;760;48.822;9.304;2022-12-18T08:56:52;0.30;99.90
1534;DHT22;760;48.822;9.304;2022-12-18T08:59:18;0.40;99.90
1534;DHT22;760;48.822;9.304;2022-12-18T09:01:45;0.60;99.90
1534;DHT22;760;48.822;9.304;2022-12-18T09:04:11;0.90;99.90
1534;DHT22;760;48.822;9.304;2022-12-18T09:06:37;1.10;99.90
1534;DHT22;760;48.822;9.304;2022-12-18T09:09:04;1.20;99.90
1534;DHT22;760;48.822;9.304;2022-12-18T09:11:30;1.50;99.90
1534;DHT22;760;48.822;9.304;2022-12-18T09:13:56;1.80;99.90
1534;DHT22;760;48.822;9.304;2022-12-18T09:16:24;2.10;99.90
1534;DHT22;760;48.822;9.304;2022-12-18T09:18:50;2.30;99.90
1534;DHT22;760;48.822;9.304;2022-12-18T09:21:20;2.50;99.90
1534;DHT22;760;48.822;9.304;2022-12-18T09:23:53;2.60;99.90
1534;DHT22;760;48.822;9.304;2022-12-18T09:26:20;2.80;99.90
1534;DHT22;760;48.822;9.304;2022-12-18T09:28:46;3.00;99.90
1534;DHT22;760;48.822;9.304;2022-12-18T09:31:18;3.30;99.90
1534;DHT22;760;48.822;9.304;2022-12-18T09:33:44;3.60;99.90
1534;DHT22;760;48.822;9.304;2022-12-18T09:36:13;3.70;99.90
1534;DHT22;760;48.822;9.304;2022-12-18T09:38:39;4.00;99.90
1534;DHT22;760;48.822;9.304;2022-12-18T09:41:21;4.10;99.90
1534;DHT22;760;48.822;9.304;2022-12-18T09:43:55;4.50;99.90
1534;DHT22;760;48.822;9.304;2022-12-18T09:46:36;4.70;98.90
1534;DHT22;760;48.822;9.304;2022-12-18T09:49:06;4.80;98.50
1534;DHT22;760;48.822;9.304;2022-12-18T09:51:39;4.90;98.00
1534;DHT22;760;48.822;9.304;2022-12-18T09:54:18;4.70;95.60
1534;DHT22;760;48.822;9.304;2022-12-18T09:56:45;4.50;96.90
1534;DHT22;760;48.822;9.304;2022-12-18T09:59:35;4.60;97.40
1534;DHT22;760;48.822;9.304;2022-12-18T10:02:13;4.80;97.10
1534;DHT22;760;48.822;9.304;2022-12-18T10:04:39;5.00;96.20
1534;DHT22;760;48.822;9.304;2022-12-18T10:07:24;4.80;94.90
1534;DHT22;760;48.822;9.304;2022-12-18T10:10:04;4.80;96.60
1534;DHT22;760;48.822;9.304;2022-12-18T10:12:51;4.90;95.20
1534;DHT22;760;48.822;9.304;2022-12-18T10:15:53;4.90;95.90
1534;DHT22;760;48.822;9.304;2022-12-18T10:18:49;4.90;94.60
1534;DHT22;760;48.822;9.304;2022-12-18T10:21:23;4.90;95.20
1534;DHT22;760;48.822;9.304;2022-12-18T10:23:54;5.00;95.30
1534;DHT22;760;48.822;9.304;2022-12-18T10:26:24;5.00;94.40
1534;DHT22;760;48.822;9.304;2022-12-18T10:28:51;4.90;94.20
1534;DHT22;760;48.822;9.304;2022-12-18T10:31:20;4.80;94.50
1534;DHT22;760;48.822;9.304;2022-12-18T10:33:46;4.80;94.90
1534;DHT22;760;48.822;9.304;2022-12-18T10:36:12;4.70;94.70
1534;DHT22;760;48.822;9.304;2022-12-18T10:38:38;4.70;93.20
1534;DHT22;760;48.822;9.304;2022-12-18T10:41:05;4.40;93.30
1534;DHT22;760;48.822;9.304;2022-12-18T10:43:35;4.30;94.40
1534;DHT22;760;48.822;9.304;2022-12-18T10:46:03;4.40;95.60
1534;DHT22;760;48.822;9.304;2022-12-18T10:48:32;4.40;95.50
1534;DHT22;760;48.822;9.304;2022-12-18T10:50:58;4.30;96.10
1534;DHT22;760;48.822;9.304;2022-12-18T10:53:29;4.10;95.70
1534;DHT22;760;48.822;9.304;2022-12-18T10:56:00;4.10;96.00
1534;DHT22;760;48.822;9.304;2022-12-18T10:58:35;4.00;96.10
1534;DHT22;760;48.822;9.304;2022-12-18T11:01:12;3.90;95.50
1534;DHT22;760;48.822;9.304;2022-12-18T11:03:46;3.70;95.50
1534;DHT22;760;48.822;9.304;2022-12-18T11:06:24;3.60;96.10
1534;DHT22;760;48.822;9.304;2022-12-18T11:09:04;3.30;96.30
1534;DHT22;760;48.822;9.304;2022-12-18T11:11:31;3.00;96.50
1534;DHT22;760;48.822;9.304;2022-12-18T11:14:11;2.60;96.90
1534;DHT22;760;48.822;9.304;2022-12-18T11:16:44;2.20;97.20
1534;DHT22;760;48.822;9.304;2022-12-18T11:21:50;1.70;99.90
1534;DHT22;760;48.822;9.304;2022-12-18T11:24:36;1.50;99.90
1534;DHT22;760;48.822;9.304;2022-12-18T11:27:05;1.30;99.90
1534;DHT22;760;48.822;9.304;2022-12-18T11:29:38;1.20;99.90
1534;DHT22;760;48.822;9.304;2022-12-18T11:32:33;1.00;99.90
1534;DHT22;760;48.822;9.304;2022-12-18T11:35:12;0.90;99.90
1534;DHT22;760;48.822;9.304;2022-12-18T11:37:42;0.80;99.90
1534;DHT22;760;48.822;9.304;2022-12-18T11:40:21;0.80;99.90
1534;DHT22;760;48.822;9.304;2022-12-18T11:42:54;0.70;99.90
1534;DHT22;760;48.822;9.304;2022-12-18T11:45:33;0.80;99.90
1534;DHT22;760;48.822;9.304;2022-12-18T11:48:16;0.70;99.90
1534;DHT22;760;48.822;9.304;2022-12-18T11:50:51;0.60;99.90
1534;DHT22;760;48.822;9.304;2022-12-18T11:53:18;0.60;99.90
1534;DHT22;760;48.822;9.304;2022-12-18T11:56:47;0.50;99.90
1534;DHT22;760;48.822;9.304;2022-12-18T11:58:54;0.60;99.90
1534;DHT22;760;48.822;9.304;2022-12-18T12:10:26;0.60;99.90
1534;DHT22;760;48.822;9.304;2022-12-18T12:16:17;0.70;99.90
1534;DHT22;760;48.822;9.304;2022-12-18T12:24:16;0.50;99.90
1534;DHT22;760;48.822;9.304;2022-12-18T12:27:16;0.50;99.90
1534;DHT22;760;48.822;9.304;2022-12-18T12:35:25;0.30;99.90
1534;DHT22;760;48.822;9.304;2022-12-18T12:40:33;0.40;99.90
1534;DHT22;760;48.822;9.304;2022-12-18T12:43:15;0.40;99.90
1534;DHT22;760;48.822;9.304;2022-12-18T12:45:49;0.50;99.90
1534;DHT22;760;48.822;9.304;2022-12-18T12:53:45;0.50;99.90
1534;DHT22;760;48.822;9.304;2022-12-18T12:56:13;0.50;99.90
1534;DHT22;760;48.822;9.304;2022-12-18T13:01:37;0.50;99.90
1534;DHT22;760;48.822;9.304;2022-12-18T13:09:33;0.60;99.90
1534;DHT22;760;48.822;9.304;2022-12-18T13:12:11;0.60;99.90
1534;DHT22;760;48.822;9.304;2022-12-18T13:15:22;0.60;99.90
1534;DHT22;760;48.822;9.304;2022-12-18T13:17:48;0.60;99.90
1534;DHT22;760;48.822;9.304;2022-12-18T13:20:15;0.60;99.90
1534;DHT22;760;48.822;9.304;2022-12-18T13:22:50;0.60;99.90
1534;DHT22;760;48.822;9.304;2022-12-18T13:25:36;0.60;99.90
1534;DHT22;760;48.822;9.304;2022-12-18T13:28:13;0.60;99.90
1534;DHT22;760;48.822;9.304;2022-12-18T13:30:56;0.60;99.90
1534;DHT22;760;48.822;9.304;2022-12-18T13:38:44;0.60;99.90
1534;DHT22;760;48.822;9.304;2022-12-18T13:46:48;0.60;99.90
1534;DHT22;760;48.822;9.304;2022-12-18T13:51:48;0.60;99.90
1534;DHT22;760;48.822;9.304;2022-12-18T13:54:39;0.60;99.90
1534;DHT22;760;48.822;9.304;2022-12-18T13:57:23;0.50;99.90
1534;DHT22;760;48.822;9.304;2022-12-18T13:59:50;0.50;99.90
1534;DHT22;760;48.822;9.304;2022-12-18T14:02:27;0.40;99.90
1534;DHT22;760;48.822;9.304;2022-12-18T14:04:53;0.40;99.90
1534;DHT22;760;48.822;9.304;2022-12-18T14:07:24;0.30;99.90
1534;DHT22;760;48.822;9.304;2022-12-18T14:09:52;0.30;99.90
1534;DHT22;760;48.822;9.304;2022-12-18T14:12:25;0.30;99.90
1534;DHT22;760;48.822;9.304;2022-12-18T14:15:34;0.20;99.90
1534;DHT22;760;48.822;9.304;2022-12-18T14:18:38;0.10;99.90
1534;DHT22;760;48.822;9.304;2022-12-18T14:21:04;0.10;99.90
1534;DHT22;760;48.822;9.304;2022-12-18T14:23:41;0.00;99.90
1534;DHT22;760;48.822;9.304;2022-12-18T14:26:27;0.00;99.90
1534;DHT22;760;48.822;9.304;2022-12-18T14:28:58;-0.10;99.90
1534;DHT22;760;48.822;9.304;2022-12-18T14:31:28;-0.10;99.90
1534;DHT22;760;48.822;9.304;2022-12-18T14:33:54;-0.20;99.90
1534;DHT22;760;48.822;9.304;2022-12-18T14:36:28;-0.20;99.90
1534;DHT22;760;48.822;9.304;2022-12-18T14:38:55;-0.30;99.90
1534;DHT22;760;48.822;9.304;2022-12-18T14:41:22;-0.40;99.90
1534;DHT22;760;48.822;9.304;2022-12-18T14:43:50;-0.40;99.90
1534;DHT22;760;48.822;9.304;2022-12-18T14:49:00;-0.50;99.90
1534;DHT22;760;48.822;9.304;2022-12-18T14:51:28;-0.50;99.90
1534;DHT22;760;48.822;9.304;2022-12-18T14:54:03;-0.60;99.90
1534;DHT22;760;48.822;9.304;2022-12-18T14:56:42;-0.60;99.90
1534;DHT22;760;48.822;9.304;2022-12-18T14:59:27;-0.70;99.90
1534;DHT22;760;48.822;9.304;2022-12-18T15:04:39;-0.90;99.90
1534;DHT22;760;48.822;9.304;2022-12-18T15:07:16;-0.90;99.90
1534;DHT22;760;48.822;9.304;2022-12-18T15:12:35;-1.00;99.90
1534;DHT22;760;48.822;9.304;2022-12-18T15:15:01;-1.00;99.90
1534;DHT22;760;48.822;9.304;2022-12-18T15:17:27;-1.10;99.90
1534;DHT22;760;48.822;9.304;2022-12-18T15:19:59;-1.10;99.90
1534;DHT22;760;48.822;9.304;2022-12-18T15:22:35;-1.20;99.90
1534;DHT22;760;48.822;9.304;2022-12-18T15:25:02;-1.20;99.90
1534;DHT22;760;48.822;9.304;2022-12-18T15:27:31;-1.30;99.90
1534;DHT22;760;48.822;9.304;2022-12-18T15:32:34;-1.30;99.90
1534;DHT22;760;48.822;9.304;2022-12-18T15:37:44;-1.40;99.90
1534;DHT22;760;48.822;9.304;2022-12-18T15:40:15;-1.50;99.90
1534;DHT22;760;48.822;9.304;2022-12-18T15:42:41;-1.50;99.90
1534;DHT22;760;48.822;9.304;2022-12-18T15:45:26;-1.50;99.90
1534;DHT22;760;48.822;9.304;2022-12-18T15:47:52;-1.60;99.90
1534;DHT22;760;48.822;9.304;2022-12-18T15:50:21;-1.70;99.90
1534;DHT22;760;48.822;9.304;2022-12-18T15:52:56;-1.70;99.90
1534;DHT22;760;48.822;9.304;2022-12-18T15:55:23;-1.80;99.90
1534;DHT22;760;48.822;9.304;2022-12-18T15:58:09;-1.80;99.90
1534;DHT22;760;48.822;9.304;2022-12-18T16:00:37;-1.90;99.90
1534;DHT22;760;48.822;9.304;2022-12-18T16:03:04;-1.90;99.90
1534;DHT22;760;48.822;9.304;2022-12-18T16:05:30;-2.00;99.90
1534;DHT22;760;48.822;9.304;2022-12-18T16:07:56;-2.00;99.90
1534;DHT22;760;48.822;9.304;2022-12-18T16:10:22;-2.00;99.90
1534;DHT22;760;48.822;9.304;2022-12-18T16:12:48;-2.00;99.90
1534;DHT22;760;48.822;9.304;2022-12-18T16:15:15;-2.00;99.90
1534;DHT22;760;48.822;9.304;2022-12-18T16:17:45;-2.10;99.90
1534;DHT22;760;48.822;9.304;2022-12-18T16:20:18;-2.10;99.90
1534;DHT22;760;48.822;9.304;2022-12-18T16:22:45;-2.10;99.90
1534;DHT22;760;48.822;9.304;2022-12-18T16:25:25;-2.10;99.90
1534;DHT22;760;48.822;9.304;2022-12-18T16:27:52;-2.10;99.90
1534;DHT22;760;48.822;9.304;2022-12-18T16:30:21;-2.10;99.90
1534;DHT22;760;48.822;9.304;2022-12-18T16:32:48;-2.10;99.90
1534;DHT22;760;48.822;9.304;2022-12-18T16:35:15;-2.10;99.90
1534;DHT22;760;48.822;9.304;2022-12-18T16:37:42;-2.10;99.90
1534;DHT22;760;48.822;9.304;2022-12-18T16:40:10;-2.10;99.90
1534;DHT22;760;48.822;9.304;2022-12-18T16:42:38;-2.10;99.90
1534;DHT22;760;48.822;9.304;2022-12-18T16:45:06;-2.10;99.90
1534;DHT22;760;48.822;9.304;2022-12-18T16:47:32;-2.20;99.90
1534;DHT22;760;48.822;9.304;2022-12-18T16:49:58;-2.20;99.90
1534;DHT22;760;48.822;9.304;2022-12-18T16:52:23;-2.20;99.90
1534;DHT22;760;48.822;9.304;2022-12-18T16:54:49;-2.20;99.90
1534;DHT22;760;48.822;9.304;2022-12-18T16:57:17;-2.30;99.90
1534;DHT22;760;48.822;9.304;2022-12-18T16:59:43;-2.30;99.90
1534;DHT22;760;48.822;9.304;2022-12-18T17:02:29;-2.30;99.90
1534;DHT22;760;48.822;9.304;2022-12-18T17:04:56;-2.30;99.90
1534;DHT22;760;48.822;9.304;2022-12-18T17:07:22;-2.30;99.90
1534;DHT22;760;48.822;9.304;2022-12-18T17:09:48;-2.30;99.90
1534;DHT22;760;48.822;9.304;2022-12-18T17:12:15;-2.30;99.90
1534;DHT22;760;48.822;9.304;2022-12-18T17:14:41;-2.30;99.90
1534;DHT22;760;48.822;9.304;2022-12-18T17:17:06;-2.30;99.90
1534;DHT22;760;48.822;9.304;2022-12-18T17:19:32;-2.30;99.90
1534;DHT22;760;48.822;9.304;2022-12-18T17:21:58;-2.30;99.90
1534;DHT22;760;48.822;9.304;2022-12-18T17:24:23;-2.40;99.90
1534;DHT22;760;48.822;9.304;2022-12-18T17:26:49;-2.30;99.90
1534;DHT22;760;48.822;9.304;2022-12-18T17:29:17;-2.30;99.90
1534;DHT22;760;48.822;9.304;2022-12-18T17:31:43;-2.30;99.90
1534;DHT22;760;48.822;9.304;2022-12-18T17:34:09;-2.30;99.90
1534;DHT22;760;48.822;9.304;2022-12-18T17:36:35;-2.30;99.90
1534;DHT22;760;48.822;9.304;2022-12-18T17:39:03;-2.30;99.90
1534;DHT22;760;48.822;9.304;2022-12-18T17:41:29;-2.20;99.90
1534;DHT22;760;48.822;9.304;2022-12-18T17:43:59;-2.20;99.90
1534;DHT22;760;48.822;9.304;2022-12-18T17:46:27;-2.20;99.90
1534;DHT22;760;48.822;9.304;2022-12-18T17:48:59;-2.20;99.90
1534;DHT22;760;48.822;9.304;2022-12-18T17:51:26;-2.10;99.90
1534;DHT22;760;48.822;9.304;2022-12-18T17:53:52;-2.10;99.90
1534;DHT22;760;48.822;9.304;2022-12-18T17:56:20;-2.10;99.90
1534;DHT22;760;48.822;9.304;2022-12-18T17:58:46;-2.00;99.90
1534;DHT22;760;48.822;9.304;2022-12-18T18:01:15;-2.00;99.90
1534;DHT22;760;48.822;9.304;2022-12-18T18:03:41;-2.00;99.90
1534;DHT22;760;48.822;9.304;2022-12-18T18:06:07;-2.00;99.90
1534;DHT22;760;48.822;9.304;2022-12-18T18:08:33;-2.00;99.90
1534;DHT22;760;48.822;9.304;2022-12-18T18:11:13;-2.00;99.90
1534;DHT22;760;48.822;9.304;2022-12-18T18:13:58;-2.00;99.90
1534;DHT22;760;48.822;9.304;2022-12-18T18:16:28;-2.00;99.90
1534;DHT22;760;48.822;9.304;2022-12-18T18:18:56;-1.90;99.90
1534;DHT22;760;48.822;9.304;2022-12-18T18:21:22;-1.90;99.90
1534;DHT22;760;48.822;9.304;2022-12-18T18:23:48;-1.90;99.90
1534;DHT22;760;48.822;9.304;2022-12-18T18:26:13;-1.90;99.90
1534;DHT22;760;48.822;9.304;2022-12-18T18:28:39;-1.90;99.90
1534;DHT22;760;48.822;9.304;2022-12-18T18:31:06;-1.90;99.90
1534;DHT22;760;48.822;9.304;2022-12-18T18:33:33;-1.90;99.90
1534;DHT22;760;48.822;9.304;2022-12-18T18:35:59;-1.80;99.90
1534;DHT22;760;48.822;9.304;2022-12-18T18:38:24;-1.90;99.90
1534;DHT22;760;48.822;9.304;2022-12-18T18:41:03;-1.80;99.90
1534;DHT22;760;48.822;9.304;2022-12-18T18:43:30;-1.90;99.90
1534;DHT22;760;48.822;9.304;2022-12-18T18:46:00;-1.80;99.90
1534;DHT22;760;48.822;9.304;2022-12-18T18:48:29;-1.80;99.90
1534;DHT22;760;48.822;9.304;2022-12-18T18:50:59;-1.80;99.90
1534;DHT22;760;48.822;9.304;2022-12-18T18:53:26;-1.80;99.90
1534;DHT22;760;48.822;9.304;2022-12-18T18:55:53;-1.80;99.90
1534;DHT22;760;48.822;9.304;2022-12-18T18:58:20;-1.80;99.90
1534;DHT22;760;48.822;9.304;2022-12-18T19:00:56;-1.80;99.90
1534;DHT22;760;48.822;9.304;2022-12-18T19:03:23;-1.80;99.90
1534;DHT22;760;48.822;9.304;2022-12-18T19:05:56;-1.80;99.90
1534;DHT22;760;48.822;9.304;2022-12-18T19:08:28;-1.80;99.90
1534;DHT22;760;48.822;9.304;2022-12-18T19:10:56;-1.80;99.90
1534;DHT22;760;48.822;9.304;2022-12-18T19:13:23;-1.80;99.90
1534;DHT22;760;48.822;9.304;2022-12-18T19:15:53;-1.80;99.90
1534;DHT22;760;48.822;9.304;2022-12-18T19:18:19;-1.80;99.90
1534;DHT22;760;48.822;9.304;2022-12-18T19:21:02;-1.80;99.90
1534;DHT22;760;48.822;9.304;2022-12-18T19:23:29;-1.80;99.90
1534;DHT22;760;48.822;9.304;2022-12-18T19:25:57;-1.70;99.90
1534;DHT22;760;48.822;9.304;2022-12-18T19:28:23;-1.70;99.90
1534;DHT22;760;48.822;9.304;2022-12-18T19:30:57;-1.70;99.90
1534;DHT22;760;48.822;9.304;2022-12-18T19:33:23;-1.70;99.90
1534;DHT22;760;48.822;9.304;2022-12-18T19:35:50;-1.70;99.90
1534;DHT22;760;48.822;9.304;2022-12-18T19:38:15;-1.70;99.90
1534;DHT22;760;48.822;9.304;2022-12-18T19:40:46;-1.70;99.90
1534;DHT22;760;48.822;9.304;2022-12-18T19:43:12;-1.70;99.90
1534;DHT22;760;48.822;9.304;2022-12-18T19:45:38;-1.70;99.90
1534;DHT22;760;48.822;9.304;2022-12-18T19:48:04;-1.70;99.90
1534;DHT22;760;48.822;9.304;2022-12-18T19:50:30;-1.80;99.90
1534;DHT22;760;48.822;9.304;2022-12-18T19:52:56;-1.80;99.90
1534;DHT22;760;48.822;9.304;2022-12-18T19:55:23;-1.80;99.90
1534;DHT22;760;48.822;9.304;2022-12-18T19:57:49;-1.70;99.90
1534;DHT22;760;48.822;9.304;2022-12-18T20:00:15;-1.70;99.90
1534;DHT22;760;48.822;9.304;2022-12-18T20:02:40;-1.70;99.90
1534;DHT22;760;48.822;9.304;2022-12-18T20:05:09;-1.70;99.90
1534;DHT22;760;48.822;9.304;2022-12-18T20:07:35;-1.70;99.90
1534;DHT22;760;48.822;9.304;2022-12-18T20:10:02;-1.80;99.90
1534;DHT22;760;48.822;9.304;2022-12-18T20:12:32;-1.70;99.90
1534;DHT22;760;48.822;9.304;2022-12-18T20:14:58;-1.70;99.90
1534;DHT22;760;48.822;9.304;2022-12-18T20:17:24;-1.70;99.90
1534;DHT22;760;48.822;9.304;2022-12-18T20:19:50;-1.70;99.90
1534;DHT22;760;48.822;9.304;2022-12-18T20:22:15;-1.70;99.90
1534;DHT22;760;48.822;9.304;2022-12-18T20:24:41;-1.70;99.90
1534;DHT22;760;48.822;9.304;2022-12-18T20:27:07;-1.60;99.90
1534;DHT22;760;48.822;9.304;2022-12-18T20:29:33;-1.60;99.90
1534;DHT22;760;48.822;9.304;2022-12-18T20:31:59;-1.60;99.90
1534;DHT22;760;48.822;9.304;2022-12-18T20:34:24;-1.60;99.90
1534;DHT22;760;48.822;9.304;2022-12-18T20:36:50;-1.60;99.90
1534;DHT22;760;48.822;9.304;2022-12-18T20:39:16;-1.60;99.90
1534;DHT22;760;48.822;9.304;2022-12-18T20:41:42;-1.60;99.90
1534;DHT22;760;48.822;9.304;2022-12-18T20:44:15;-1.60;99.90
1534;DHT22;760;48.822;9.304;2022-12-18T20:46:42;-1.60;99.90
1534;DHT22;760;48.822;9.304;2022-12-18T20:49:07;-1.60;99.90
1534;DHT22;760;48.822;9.304;2022-12-18T20:51:33;-1.60;99.90
1534;DHT22;760;48.822;9.304;2022-12-18T20:54:00;-1.60;99.90
1534;DHT22;760;48.822;9.304;2022-12-18T20:56:26;-1.60;99.90
1534;DHT22;760;48.822;9.304;2022-12-18T20:58:55;-1.60;99.90
1534;DHT22;760;48.822;9.304;2022-12-18T21:01:22;-1.60;99.90
1534;DHT22;760;48.822;9.304;2022-12-18T21:03:48;-1.60;99.90
1534;DHT22;760;48.822;9.304;2022-12-18T21:06:15;-1.60;99.90
1534;DHT22;760;48.822;9.304;2022-12-18T21:08:41;-1.60;99.90
1534;DHT22;760;48.822;9.304;2022-12-18T21:14:24;-1.60;99.90
1534;DHT22;760;48.822;9.304;2022-12-18T21:16:53;-1.50;99.90
1534;DHT22;760;48.822;9.304;2022-12-18T21:19:22;-1.50;99.90
1534;DHT22;760;48.822;9.304;2022-12-18T21:21:48;-1.50;99.90
1534;DHT22;760;48.822;9.304;2022-12-18T21:24:14;-1.60;99.90
1534;DHT22;760;48.822;9.304;2022-12-18T21:26:46;-1.50;99.90
1534;DHT22;760;48.822;9.304;2022-12-18T21:29:19;-1.50;99.90
1534;DHT22;760;48.822;9.304;2022-12-18T21:31:45;-1.50;99.90
1534;DHT22;760;48.822;9.304;2022-12-18T21:34:16;-1.50;99.90
1534;DHT22;760;48.822;9.304;2022-12-18T21:36:42;-1.50;99.90
1534;DHT22;760;48.822;9.304;2022-12-18T21:39:08;-1.40;99.90
1534;DHT22;760;48.822;9.304;2022-12-18T21:41:34;-1.40;99.90
1534;DHT22;760;48.822;9.304;2022-12-18T21:44:18;-1.40;99.90
1534;DHT22;760;48.822;9.304;2022-12-18T21:46:46;-1.30;99.90
1534;DHT22;760;48.822;9.304;2022-12-18T21:49:13;-1.30;99.90
1534;DHT22;760;48.822;9.304;2022-12-18T21:51:41;-1.30;99.90
1534;DHT22;760;48.822;9.304;2022-12-18T21:54:07;-1.30;99.90
1534;DHT22;760;48.822;9.304;2022-12-18T21:56:53;-1.30;99.90
1534;DHT22;760;48.822;9.304;2022-12-18T22:02:03;-1.20;99.90
1534;DHT22;760;48.822;9.304;2022-12-18T22:04:29;-1.10;99.90
1534;DHT22;760;48.822;9.304;2022-12-18T22:06:54;-1.10;99.90
1534;DHT22;760;48.822;9.304;2022-12-18T22:09:22;-1.00;99.90
1534;DHT22;760;48.822;9.304;2022-12-18T22:11:49;-1.00;99.90
1534;DHT22;760;48.822;9.304;2022-12-18T22:14:19;-1.00;99.90
1534;DHT22;760;48.822;9.304;2022-12-18T22:16:45;-1.00;99.90
1534;DHT22;760;48.822;9.304;2022-12-18T22:19:11;-1.00;99.90
1534;DHT22;760;48.822;9.304;2022-12-18T22:21:39;-1.00;99.90
1534;DHT22;760;48.822;9.304;2022-12-18T22:24:09;-1.00;99.90
1534;DHT22;760;48.822;9.304;2022-12-18T22:26:36;-1.00;99.90
1534;DHT22;760;48.822;9.304;2022-12-18T22:29:03;-1.10;99.90
1534;DHT22;760;48.822;9.304;2022-12-18T22:31:48;-1.10;99.90
1534;DHT22;760;48.822;9.304;2022-12-18T22:34:13;-1.20;99.90
1534;DHT22;760;48.822;9.304;2022-12-18T22:36:45;-1.20;99.90
1534;DHT22;760;48.822;9.304;2022-12-18T22:39:13;-1.20;99.90
1534;DHT22;760;48.822;9.304;2022-12-18T22:41:39;-1.30;99.90
1534;DHT22;760;48.822;9.304;2022-12-18T22:44:05;-1.30;99.90
1534;DHT22;760;48.822;9.304;2022-12-18T22:46:33;-1.20;99.90
1534;DHT22;760;48.822;9.304;2022-12-18T22:48:59;-1.20;99.90
1534;DHT22;760;48.822;9.304;2022-12-18T22:51:25;-1.20;99.90
1534;DHT22;760;48.822;9.304;2022-12-18T22:53:51;-1.20;99.90
1534;DHT22;760;48.822;9.304;2022-12-18T22:56:17;-1.20;99.90